Time;durP1;ratioP1;P1;durP2;ratioP2;P2;SDS_P1;SDS_P2;PMS_P1;PMS_P2;Temp;Humidity;BMP_temperature;BMP_pressure;BME280_temperature;BME280_humidity;BME280_pressure;Samples;Min_cycle;Max_cycle;Signal;HPM_P1;HPM_P2
2023/04/21 00:01:01;;;;;;;;;;;;;;;8.59;57.71;100904.04;104728;277;91940;-55
2023/04/21 00:03:36;;;;;;;;;;;;;;;8.55;57.97;100906.23;104746;280;95499;-55
2023/04/21 00:06:09;;;;;;;;;;;;;;;8.53;58.05;100909.34;104060;277;120903;-55
2023/04/21 00:08:42;;;;;;;;;;;;;;;8.49;58.17;100906.64;104766;277;105834;-55
2023/04/21 00:11:21;;;;;;;;;;;;;;;8.45;58.42;100907.17;104049;279;113951;-58
2023/04/21 00:13:55;;;;;;;;;;;;;;;8.42;58.56;100901.56;104009;278;93389;-58
2023/04/21 00:16:27;;;;;;;;;;;;;;;8.41;58.63;100903.08;104475;278;95750;-58
2023/04/21 00:18:59;;;;;;;;;;;;;;;8.37;58.63;100899.95;104054;278;120541;-58
2023/04/21 00:21:31;;;;;;;;;;;;;;;8.35;58.71;100899.92;104068;278;106368;-56
2023/04/21 00:24:04;;;;;;;;;;;;;;;8.35;58.97;100899.79;104035;278;113705;-56
2023/04/21 00:26:36;;;;;;;;;;;;;;;8.35;58.93;100898.55;104481;278;93841;-55
2023/04/21 00:29:08;;;;;;;;;;;;;;;8.35;59.10;100898.38;104126;279;97593;-55
2023/04/21 00:31:40;;;;;;;;;;;;;;;8.30;59.27;100897.59;104066;279;119741;-56
2023/04/21 00:34:12;;;;;;;;;;;;;;;8.26;59.24;100897.42;104059;278;104897;-56
2023/04/21 00:36:45;;;;;;;;;;;;;;;8.27;59.45;100896.99;104097;279;113404;-56
2023/04/21 00:39:18;;;;;;;;;;;;;;;8.28;59.55;100892.60;104067;279;93422;-56
2023/04/21 00:42:01;;;;;;;;;;;;;;;8.25;59.48;100891.12;104066;279;96673;-58
2023/04/21 00:44:33;;;;;;;;;;;;;;;8.23;59.63;100891.67;104004;278;120611;-58
2023/04/21 00:47:05;;;;;;;;;;;;;;;8.20;59.49;100892.53;104482;283;104763;-58
2023/04/21 00:49:38;;;;;;;;;;;;;;;8.16;59.79;100891.91;104075;278;113849;-58
2023/04/21 00:55:34;;;;;;;;;;;;;;;8.11;59.82;100898.04;104165;276;96253;-55
2023/04/21 00:58:06;;;;;;;;;;;;;;;8.08;59.95;100898.67;104035;279;121148;-57
2023/04/21 01:00:39;;;;;;;;;;;;;;;8.05;60.17;100891.25;104288;277;104871;-57
2023/04/21 01:03:11;;;;;;;;;;;;;;;8.04;60.18;100889.23;104266;277;113257;-55
2023/04/21 01:05:43;;;;;;;;;;;;;;;8.05;60.33;100887.66;104729;277;94181;-55
2023/04/21 01:10:57;;;;;;;;;;;;;;;8.01;60.37;100885.42;104055;277;120481;-58
2023/04/21 01:15:58;;;;;;;;;;;;;;;7.95;60.52;100885.39;104457;277;114814;-58
2023/04/21 01:18:31;;;;;;;;;;;;;;;7.91;60.58;100888.63;104053;278;91792;-58
2023/04/21 01:21:04;;;;;;;;;;;;;;;7.89;60.71;100886.16;104478;278;96672;-58
2023/04/21 01:23:36;;;;;;;;;;;;;;;7.87;60.69;100888.00;104458;278;119716;-55
2023/04/21 01:26:09;;;;;;;;;;;;;;;7.84;60.75;100884.33;104071;278;105271;-55
2023/04/21 01:28:41;;;;;;;;;;;;;;;7.83;60.89;100887.04;103642;279;672938;-55
2023/04/21 01:31:13;;;;;;;;;;;;;;;7.79;60.98;100890.09;104067;275;93233;-55
2023/04/21 01:33:46;;;;;;;;;;;;;;;7.79;60.99;100888.48;104099;279;98400;-57
2023/04/21 01:39:43;;;;;;;;;;;;;;;7.70;61.10;100886.60;104065;277;104068;-57
2023/04/21 01:42:16;;;;;;;;;;;;;;;7.67;61.16;100883.11;104268;277;114103;-56
2023/04/21 01:44:48;;;;;;;;;;;;;;;7.62;61.36;100883.42;104280;277;92601;-56
2023/04/21 01:47:21;;;;;;;;;;;;;;;7.59;61.49;100884.14;104303;277;98279;-55
2023/04/21 01:49:54;;;;;;;;;;;;;;;7.56;61.50;100883.89;104727;277;120307;-55
2023/04/21 01:52:26;;;;;;;;;;;;;;;7.52;61.62;100889.86;104278;277;105392;-56
2023/04/21 01:54:58;;;;;;;;;;;;;;;7.47;61.84;100887.35;104259;277;115443;-56
2023/04/21 01:57:30;;;;;;;;;;;;;;;7.43;61.82;100887.19;104280;265;93800;-58
2023/04/21 02:00:03;;;;;;;;;;;;;;;7.41;61.90;100888.09;104720;277;98437;-58
2023/04/21 02:02:35;;;;;;;;;;;;;;;7.43;61.90;100888.50;104726;277;119653;-58
2023/04/21 02:08:24;;;;;;;;;;;;;;;7.35;62.27;100886.92;104219;276;112851;-58
2023/04/21 02:10:55;;;;;;;;;;;;;;;7.34;62.27;100886.55;104260;277;94102;-58
2023/04/21 02:13:27;;;;;;;;;;;;;;;7.30;62.25;100886.75;104669;277;96228;-58
2023/04/21 02:16:00;;;;;;;;;;;;;;;7.27;62.35;100887.13;104283;277;120082;-58
2023/04/21 02:18:33;;;;;;;;;;;;;;;7.25;62.44;100888.20;104255;277;104329;-58
2023/04/21 02:21:06;;;;;;;;;;;;;;;7.22;62.52;100886.21;104144;278;113117;-56
2023/04/21 02:23:38;;;;;;;;;;;;;;;7.19;62.60;100883.27;104201;277;91553;-56
2023/04/21 02:26:10;;;;;;;;;;;;;;;7.14;62.67;100882.16;104172;278;98301;-58
2023/04/21 02:28:42;;;;;;;;;;;;;;;7.08;62.68;100881.85;104177;278;119414;-58
2023/04/21 02:31:18;;;;;;;;;;;;;;;7.00;63.02;100884.13;104561;278;104081;-58
2023/04/21 02:37:10;;;;;;;;;;;;;;;6.85;63.31;100885.49;104150;274;92791;-55
2023/04/21 02:39:43;;;;;;;;;;;;;;;6.78;63.26;100883.16;104432;275;97555;-56
2023/04/21 02:42:15;;;;;;;;;;;;;;;6.69;63.20;100882.81;104849;275;120998;-56
2023/04/21 02:44:48;;;;;;;;;;;;;;;6.60;63.64;100882.63;104842;275;104575;-55
2023/04/21 02:47:20;;;;;;;;;;;;;;;6.50;63.83;100882.39;104432;275;113927;-55
2023/04/21 02:49:55;;;;;;;;;;;;;;;6.46;63.99;100880.46;104422;275;93038;-58
2023/04/21 02:52:28;;;;;;;;;;;;;;;6.39;64.06;100878.64;104111;277;97164;-58
2023/04/21 02:55:00;;;;;;;;;;;;;;;6.32;64.28;100876.63;104524;278;120778;-58
2023/04/21 02:57:32;;;;;;;;;;;;;;;6.24;64.39;100871.73;104538;278;105485;-58
2023/04/21 03:00:06;;;;;;;;;;;;;;;6.19;64.60;100876.37;104147;278;114140;-56
2023/04/21 03:02:38;;;;;;;;;;;;;;;6.14;64.84;100876.44;104183;278;92169;-56
2023/04/21 03:05:11;;;;;;;;;;;;;;;6.18;64.96;100873.57;104533;278;97319;-56
2023/04/21 03:07:44;;;;;;;;;;;;;;;6.16;65.17;100875.40;104192;278;118970;-56
2023/04/21 03:10:18;;;;;;;;;;;;;;;6.13;64.93;100873.88;104187;278;104976;-57
2023/04/21 03:12:50;;;;;;;;;;;;;;;6.10;65.05;100871.15;104096;278;113500;-57
2023/04/21 03:15:22;;;;;;;;;;;;;;;6.08;65.19;100872.64;104105;278;92358;-55
2023/04/21 03:17:54;;;;;;;;;;;;;;;6.02;65.23;100873.52;104111;278;97111;-55
2023/04/21 03:20:26;;;;;;;;;;;;;;;6.00;65.00;100873.72;104133;278;119273;-57
2023/04/21 03:22:59;;;;;;;;;;;;;;;5.95;65.28;100874.09;104577;278;103432;-57
2023/04/21 03:25:31;;;;;;;;;;;;;;;5.87;65.47;100877.00;104124;278;113382;-58
2023/04/21 03:28:03;;;;;;;;;;;;;;;5.81;65.74;100877.47;104098;278;92167;-58
2023/04/21 03:30:36;;;;;;;;;;;;;;;5.78;65.81;100875.33;104121;278;97075;-57
2023/04/21 03:33:08;;;;;;;;;;;;;;;5.73;65.88;100876.38;104116;278;120397;-57
2023/04/21 03:35:40;;;;;;;;;;;;;;;5.66;66.06;100875.07;104114;278;104371;-57
2023/04/21 03:38:13;;;;;;;;;;;;;;;5.62;66.30;100878.27;104124;278;114977;-57
2023/04/21 03:40:45;;;;;;;;;;;;;;;5.59;66.37;100880.00;104573;278;92802;-57
2023/04/21 03:43:17;;;;;;;;;;;;;;;5.56;66.41;100883.14;104272;275;99316;-57
2023/04/21 03:45:49;;;;;;;;;;;;;;;5.54;66.63;100882.11;104304;276;121068;-55
2023/04/21 03:48:22;;;;;;;;;;;;;;;5.53;66.72;100887.54;104279;276;104363;-55
2023/04/21 03:50:54;;;;;;;;;;;;;;;5.54;66.93;100890.12;104762;276;115291;-55
2023/04/21 03:53:26;;;;;;;;;;;;;;;5.57;66.97;100886.33;104769;276;92187;-55
2023/04/21 03:55:58;;;;;;;;;;;;;;;5.61;67.15;100887.70;104333;276;98191;-58
2023/04/21 03:58:30;;;;;;;;;;;;;;;5.63;67.28;100889.80;104309;276;121817;-58
2023/04/21 04:04:30;;;;;;;;;;;;;;;5.71;67.58;100894.35;104295;275;111974;-57
2023/04/21 04:07:02;;;;;;;;;;;;;;;5.75;67.57;100901.48;104829;275;93813;-58
2023/04/21 04:12:50;;;;;;;;;;;;;;;6.00;67.69;100897.89;104412;275;119562;-58
2023/04/21 04:15:24;;;;;;;;;;;;;;;6.18;67.80;100894.69;104399;275;106624;-56
2023/04/21 04:17:56;;;;;;;;;;;;;;;6.42;68.02;100899.80;104418;276;112914;-56
2023/04/21 04:20:30;;;;;;;;;;;;;;;6.77;67.95;100899.17;104412;276;93411;-55
2023/04/21 04:23:02;;;;;;;;;;;;;;;7.44;68.01;100900.39;104829;276;97034;-55
2023/04/21 04:25:36;;;;;;;;;;;;;;;8.29;67.36;100898.02;104412;276;121531;-55
2023/04/21 04:28:08;;;;;;;;;;;;;;;8.98;66.71;100895.59;104407;276;105803;-55
2023/04/21 04:30:40;;;;;;;;;;;;;;;9.77;65.94;100898.48;104387;276;114194;-55
2023/04/21 04:33:12;;;;;;;;;;;;;;;10.71;65.60;100897.52;104816;284;92185;-55
2023/04/21 04:35:54;;;;;;;;;;;;;;;12.42;64.59;100897.48;104442;276;97516;-56
2023/04/21 04:38:27;;;;;;;;;;;;;;;14.08;62.78;100893.95;104147;278;120058;-56
2023/04/21 04:41:01;;;;;;;;;;;;;;;15.37;60.90;100893.75;104162;278;103494;-58
2023/04/21 04:43:35;;;;;;;;;;;;;;;16.47;58.44;100893.66;104091;277;113757;-58
2023/04/21 04:46:11;;;;;;;;;;;;;;;17.41;56.44;100891.14;104149;278;93419;-59
2023/04/21 04:48:43;;;;;;;;;;;;;;;18.32;53.81;100893.79;104123;278;97738;-57
2023/04/21 04:51:15;;;;;;;;;;;;;;;18.98;51.89;100890.52;104126;278;120853;-58
2023/04/21 04:53:57;;;;;;;;;;;;;;;19.58;49.92;100886.41;104144;278;104794;-58
2023/04/21 04:56:31;;;;;;;;;;;;;;;19.97;45.70;100885.77;104395;279;114930;-58
2023/04/21 04:59:17;;;;;;;;;;;;;;;20.49;46.30;100886.59;103722;275;93990;-56
2023/04/21 05:01:49;;;;;;;;;;;;;;;20.39;44.79;100888.94;104813;276;96805;-56
2023/04/21 05:04:21;;;;;;;;;;;;;;;19.93;44.21;100890.61;104356;276;120573;-56
2023/04/21 05:09:44;;;;;;;;;;;;;;;19.50;42.85;100893.05;104707;277;113993;-58
2023/04/21 05:12:16;;;;;;;;;;;;;;;19.75;41.97;100892.55;104283;277;94693;-59
2023/04/21 05:14:49;;;;;;;;;;;;;;;20.14;41.84;100896.45;104337;277;97308;-57
2023/04/21 05:17:21;;;;;;;;;;;;;;;19.90;39.34;100890.75;104279;277;120147;-56
2023/04/21 05:25:47;;;;;;;;;;;;;;;20.09;38.85;100885.55;104294;276;93780;-55
2023/04/21 05:28:20;;;;;;;;;;;;;;;20.53;38.27;100889.31;104304;277;97443;-57
2023/04/21 05:30:52;;;;;;;;;;;;;;;21.87;38.36;100882.95;104303;277;120784;-57
2023/04/21 05:33:25;;;;;;;;;;;;;;;22.71;37.88;100883.98;104794;277;106346;-55
2023/04/21 05:35:57;;;;;;;;;;;;;;;23.40;36.55;100882.75;104726;277;114827;-55
2023/04/21 05:38:30;;;;;;;;;;;;;;;23.73;36.33;100882.08;104312;277;94941;-58
2023/04/21 05:44:38;;;;;;;;;;;;;;;25.31;34.97;100885.72;104303;274;120274;-58
2023/04/21 05:47:11;;;;;;;;;;;;;;;25.32;33.73;100884.58;104846;275;106511;-55
2023/04/21 05:49:48;;;;;;;;;;;;;;;25.67;33.73;100885.84;104847;275;113503;-55
2023/04/21 05:52:21;;;;;;;;;;;;;;;26.08;32.54;100883.53;104435;275;94703;-56
2023/04/21 05:54:53;;;;;;;;;;;;;;;26.28;31.97;100884.28;104854;275;97048;-64
2023/04/21 05:57:26;;;;;;;;;;;;;;;26.60;31.54;100880.23;104466;275;119560;-63
2023/04/21 05:59:58;;;;;;;;;;;;;;;26.99;31.62;100874.85;104860;275;106091;-63
2023/04/21 06:02:51;;;;;;;;;;;;;;;27.53;31.15;100875.48;104449;275;114940;-63
2023/04/21 06:05:24;;;;;;;;;;;;;;;28.18;30.35;100869.14;104112;277;94891;-64
2023/04/21 06:07:57;;;;;;;;;;;;;;;28.31;29.62;100869.72;104246;277;96329;-56
2023/04/21 06:10:30;;;;;;;;;;;;;;;28.30;29.51;100871.39;104284;277;120167;-56
2023/04/21 06:26:17;;;;;;;;;;;;;;;30.12;27.42;100862.70;104218;277;118007;-58
2023/04/21 06:28:50;;;;;;;;;;;;;;;29.96;26.90;100864.42;104308;277;103981;-56
2023/04/21 06:31:22;;;;;;;;;;;;;;;30.36;26.99;100863.44;104083;277;115398;-56
2023/04/21 06:33:54;;;;;;;;;;;;;;;30.75;26.66;100859.08;104259;277;92935;-59
2023/04/21 06:36:27;;;;;;;;;;;;;;;30.71;26.39;100859.56;104312;277;97632;-59
2023/04/21 06:39:00;;;;;;;;;;;;;;;30.68;26.24;100858.61;104335;277;120483;-60
2023/04/21 06:41:32;;;;;;;;;;;;;;;30.84;25.48;100858.20;104306;277;105458;-60
2023/04/21 06:44:07;;;;;;;;;;;;;;;31.00;25.16;100858.04;104355;277;114500;31
2023/04/21 06:49:56;;;;;;;;;;;;;;;30.67;24.38;100859.31;104297;276;96956;-56
2023/04/21 06:52:28;;;;;;;;;;;;;;;30.29;24.31;100858.56;104321;277;120940;-56
2023/04/21 06:55:01;;;;;;;;;;;;;;;30.20;23.92;100857.34;104788;277;104703;-56
2023/04/21 06:57:35;;;;;;;;;;;;;;;29.55;24.28;100860.17;104297;277;112975;-56
2023/04/21 07:03:27;;;;;;;;;;;;;;;28.52;24.84;100862.48;104251;276;95900;-56
2023/04/21 07:05:59;;;;;;;;;;;;;;;28.72;24.58;100859.40;104316;276;120489;-59
2023/04/21 07:14:47;;;;;;;;;;;;;;;30.53;24.29;100851.63;104362;274;92721;-56
2023/04/21 07:17:20;;;;;;;;;;;;;;;30.62;24.18;100850.50;104423;275;95759;-56
2023/04/21 07:19:52;;;;;;;;;;;;;;;30.96;23.81;100853.92;104820;275;119882;-57
2023/04/21 07:22:24;;;;;;;;;;;;;;;31.05;22.82;100855.35;104841;276;105795;-58
2023/04/21 07:34:29;;;;;;;;;;;;;;;31.12;22.72;100853.39;104290;276;118727;-56
2023/04/21 07:43:24;;;;;;;;;;;;;;;31.59;22.46;100847.25;104276;274;92742;-59
2023/04/21 07:45:56;;;;;;;;;;;;;;;31.56;21.96;100843.99;104453;275;98177;-60
2023/04/21 07:48:29;;;;;;;;;;;;;;;31.87;22.07;100845.89;104410;275;119687;-58
2023/04/21 07:51:02;;;;;;;;;;;;;;;31.86;21.67;100841.27;104811;275;106379;-57
2023/04/21 07:53:35;;;;;;;;;;;;;;;32.23;21.23;100841.98;104423;275;113177;-57
2023/04/21 07:56:17;;;;;;;;;;;;;;;31.73;21.51;100841.23;104445;276;94628;-57
2023/04/21 07:58:50;;;;;;;;;;;;;;;31.79;20.89;100835.05;104266;277;96946;-57
2023/04/21 08:01:22;;;;;;;;;;;;;;;31.68;21.44;100835.13;104277;277;120487;-58
2023/04/21 08:04:12;;;;;;;;;;;;;;;31.74;21.59;100832.95;104316;277;105137;-59
2023/04/21 08:06:44;;;;;;;;;;;;;;;31.76;21.71;100830.21;104448;278;114148;-57
2023/04/21 08:09:17;;;;;;;;;;;;;;;31.75;21.63;100826.79;104486;278;94714;-57
2023/04/21 08:11:49;;;;;;;;;;;;;;;31.54;21.21;100825.70;104086;279;96948;-56
2023/04/21 08:14:21;;;;;;;;;;;;;;;31.83;20.04;100824.83;104037;279;121345;-57
2023/04/21 08:16:54;;;;;;;;;;;;;;;31.51;20.34;100818.96;104481;278;105510;-59
2023/04/21 08:19:26;;;;;;;;;;;;;;;31.33;20.52;100824.86;104465;278;114843;-58
2023/04/21 08:21:58;;;;;;;;;;;;;;;31.95;19.44;100818.59;104081;278;94174;-59
2023/04/21 08:24:30;;;;;;;;;;;;;;;31.71;19.62;100822.91;104491;278;96942;-58
2023/04/21 08:27:03;;;;;;;;;;;;;;;31.92;19.21;100821.70;104086;278;121147;-58
2023/04/21 08:29:35;;;;;;;;;;;;;;;31.64;19.56;100825.40;104507;278;106079;-57
2023/04/21 08:32:07;;;;;;;;;;;;;;;31.39;18.59;100821.98;104065;278;114185;-57
2023/04/21 08:34:39;;;;;;;;;;;;;;;30.67;17.41;100822.26;104479;279;94106;-58
2023/04/21 08:37:11;;;;;;;;;;;;;;;29.93;18.40;100819.98;104087;279;98191;-58
2023/04/21 08:39:43;;;;;;;;;;;;;;;30.18;18.48;100825.61;104052;278;120319;-55
2023/04/21 08:42:17;;;;;;;;;;;;;;;30.51;18.78;100819.55;104485;279;105859;-55
2023/04/21 08:44:51;;;;;;;;;;;;;;;29.71;17.27;100826.70;104056;278;115227;-59
2023/04/21 08:47:24;;;;;;;;;;;;;;;29.22;18.55;100823.08;104474;278;92398;-59
2023/04/21 08:49:57;;;;;;;;;;;;;;;29.48;17.27;100820.71;104112;278;98263;-56
2023/04/21 08:52:34;;;;;;;;;;;;;;;29.36;18.26;100821.85;104480;278;120084;-59
2023/04/21 08:55:08;;;;;;;;;;;;;;;29.76;18.53;100810.60;104146;277;105804;-59
2023/04/21 08:57:40;;;;;;;;;;;;;;;29.94;18.59;100817.28;104112;278;114680;-56
2023/04/21 09:00:31;;;;;;;;;;;;;;;30.09;18.78;100811.30;103744;282;93447;-58
2023/04/21 09:03:06;;;;;;;;;;;;;;;30.14;18.61;100810.88;104109;278;98374;-58
2023/04/21 09:05:38;;;;;;;;;;;;;;;29.88;18.46;100810.82;104497;278;121355;-56
2023/04/21 09:11:32;;;;;;;;;;;;;;;29.11;17.50;100816.66;104303;275;112901;-59
2023/04/21 09:14:05;;;;;;;;;;;;;;;28.67;17.73;100815.47;104433;276;93634;-58
2023/04/21 09:16:40;;;;;;;;;;;;;;;28.47;17.93;100815.45;104446;275;98103;-63
2023/04/21 09:19:17;;;;;;;;;;;;;;;27.46;17.81;100804.55;104416;275;119603;-56
2023/04/21 09:21:49;;;;;;;;;;;;;;;26.56;18.49;100806.09;104428;275;103287;-56
2023/04/21 09:24:21;;;;;;;;;;;;;;;26.31;19.04;100804.43;104421;275;114885;-57
2023/04/21 09:26:54;;;;;;;;;;;;;;;25.81;19.36;100804.11;104450;276;92368;-58
2023/04/21 09:29:26;;;;;;;;;;;;;;;25.63;18.81;100803.08;103960;276;555841;-57
2023/04/21 09:31:58;;;;;;;;;;;;;;;25.15;19.58;100794.39;104811;276;120633;-57
2023/04/21 09:34:33;;;;;;;;;;;;;;;24.75;19.90;100805.10;104243;275;107302;-56
2023/04/21 09:37:05;;;;;;;;;;;;;;;24.32;20.40;100802.13;104426;276;112958;-56
2023/04/21 09:39:37;;;;;;;;;;;;;;;24.28;20.66;100801.11;104833;276;93996;-56
2023/04/21 09:42:11;;;;;;;;;;;;;;;23.89;20.65;100795.60;104443;275;96269;-56
2023/04/21 09:44:43;;;;;;;;;;;;;;;23.84;20.88;100799.30;104420;275;121078;-56
2023/04/21 09:47:16;;;;;;;;;;;;;;;23.34;21.31;100800.05;104809;275;105621;-56
2023/04/21 09:49:50;;;;;;;;;;;;;;;23.36;21.76;100796.98;104412;275;114221;-55
2023/04/21 09:52:24;;;;;;;;;;;;;;;23.34;21.90;100789.67;104411;275;95403;-56
2023/04/21 09:55:03;;;;;;;;;;;;;;;23.09;22.46;100789.84;104445;275;98397;-59
2023/04/21 09:57:38;;;;;;;;;;;;;;;23.08;22.26;100789.51;104833;275;121696;-58
2023/04/21 10:00:13;;;;;;;;;;;;;;;22.94;22.53;100784.67;104446;275;105289;-56
2023/04/21 10:02:48;;;;;;;;;;;;;;;22.76;22.67;100783.06;104430;275;114042;-56
2023/04/21 10:05:23;;;;;;;;;;;;;;;22.61;23.09;100786.42;104441;275;93999;-59
2023/04/21 10:07:56;;;;;;;;;;;;;;;22.59;23.19;100777.75;104468;276;96432;-59
2023/04/21 10:10:30;;;;;;;;;;;;;;;22.67;23.31;100776.25;104475;276;120852;-57
2023/04/21 10:13:03;;;;;;;;;;;;;;;22.58;23.22;100773.34;104499;275;104457;-57
2023/04/21 10:15:38;;;;;;;;;;;;;;;22.46;23.04;100770.05;104461;275;113552;-57
2023/04/21 10:18:16;;;;;;;;;;;;;;;22.32;22.96;100772.15;104442;275;93178;-54
2023/04/21 10:20:56;;;;;;;;;;;;;;;22.31;23.38;100763.27;104469;275;96595;-55
2023/04/21 10:23:30;;;;;;;;;;;;;;;22.34;23.53;100758.17;104266;275;120872;-56
2023/04/21 10:26:08;;;;;;;;;;;;;;;22.41;23.52;100759.58;104858;279;105073;-56
2023/04/21 10:28:48;;;;;;;;;;;;;;;22.33;22.77;100755.31;104826;276;114120;-57
2023/04/21 10:31:31;;;;;;;;;;;;;;;22.29;22.81;100750.74;104458;275;93881;-58
2023/04/21 10:34:17;;;;;;;;;;;;;;;22.16;22.61;100744.15;104468;275;95645;-56
2023/04/21 10:37:15;;;;;;;;;;;;;;;21.98;22.38;100742.78;104454;275;120273;-57
2023/04/21 10:39:53;;;;;;;;;;;;;;;21.84;22.44;100748.91;104452;276;104457;-55
2023/04/21 10:42:30;;;;;;;;;;;;;;;21.58;22.24;100747.70;104831;275;112097;-55
2023/04/21 10:45:19;;;;;;;;;;;;;;;21.39;22.71;100740.92;104417;275;94039;-55
2023/04/21 10:47:52;;;;;;;;;;;;;;;21.39;22.54;100745.92;104441;275;97014;-55
2023/04/21 10:50:29;;;;;;;;;;;;;;;21.17;22.36;100743.33;104419;275;120903;-57
2023/04/21 10:53:09;;;;;;;;;;;;;;;21.00;22.40;100734.54;104419;275;104649;-57
2023/04/21 10:55:42;;;;;;;;;;;;;;;20.92;22.80;100735.67;104424;275;114088;-55
2023/04/21 10:58:17;;;;;;;;;;;;;;;21.05;22.83;100735.95;104445;275;92759;-55
2023/04/21 11:00:54;;;;;;;;;;;;;;;20.90;22.74;100735.69;104858;275;96737;-55
2023/04/21 11:03:34;;;;;;;;;;;;;;;20.92;23.02;100725.35;104437;276;120556;-55
2023/04/21 11:06:18;;;;;;;;;;;;;;;21.01;23.74;100719.24;104811;276;105458;-55
2023/04/21 11:09:00;;;;;;;;;;;;;;;21.14;23.34;100722.13;104399;276;113142;-55
2023/04/21 11:11:35;;;;;;;;;;;;;;;20.96;23.07;100720.82;104862;276;94202;-56
2023/04/21 11:14:07;;;;;;;;;;;;;;;20.82;22.70;100720.95;104411;276;96183;-56
2023/04/21 11:16:44;;;;;;;;;;;;;;;20.66;22.78;100713.96;104413;276;120098;-56
2023/04/21 11:19:17;;;;;;;;;;;;;;;20.45;22.78;100706.85;104396;276;104963;-56
2023/04/21 11:21:53;;;;;;;;;;;;;;;20.38;22.58;100710.33;104846;276;114934;-55
2023/04/21 11:24:25;;;;;;;;;;;;;;;20.20;22.55;100706.00;104148;276;95660;-57
2023/04/21 11:27:11;;;;;;;;;;;;;;;20.14;22.34;100701.61;104392;276;97189;-58
2023/04/21 11:29:44;;;;;;;;;;;;;;;20.01;22.51;100700.20;104376;276;121006;-56
2023/04/21 11:32:18;;;;;;;;;;;;;;;20.14;22.88;100694.36;104154;277;108369;-56
2023/04/21 11:34:50;;;;;;;;;;;;;;;20.03;23.09;100688.55;104420;276;114573;-58
2023/04/21 11:37:27;;;;;;;;;;;;;;;20.05;23.53;100680.58;104403;276;93042;-58
2023/04/21 11:40:05;;;;;;;;;;;;;;;20.13;23.49;100673.43;104450;276;97688;-55
2023/04/21 11:42:37;;;;;;;;;;;;;;;20.27;23.33;100678.98;104438;276;121254;-55
2023/04/21 11:45:16;;;;;;;;;;;;;;;20.16;22.72;100671.61;104432;275;105453;-56
2023/04/21 11:47:49;;;;;;;;;;;;;;;20.06;23.20;100674.11;104834;276;113642;-56
2023/04/21 11:50:34;;;;;;;;;;;;;;;19.97;23.15;100676.36;104413;276;93587;-55
2023/04/21 11:53:07;;;;;;;;;;;;;;;19.92;23.16;100677.02;104456;276;96673;-55
2023/04/21 11:55:41;;;;;;;;;;;;;;;19.79;23.15;100671.82;104423;276;121887;-55
2023/04/21 11:58:15;;;;;;;;;;;;;;;19.85;23.66;100671.77;104453;276;104417;-56
2023/04/21 12:00:47;;;;;;;;;;;;;;;19.89;23.64;100662.48;104839;280;114633;-59
2023/04/21 12:03:21;;;;;;;;;;;;;;;20.04;24.09;100660.98;104821;276;93582;-59
2023/04/21 12:05:57;;;;;;;;;;;;;;;19.97;23.39;100666.15;104448;276;97839;-63
2023/04/21 12:08:33;;;;;;;;;;;;;;;19.69;23.27;100665.48;104145;277;120380;-56
2023/04/21 12:11:05;;;;;;;;;;;;;;;19.68;23.73;100661.94;104412;276;104262;-55
2023/04/21 12:13:40;;;;;;;;;;;;;;;19.82;24.31;100650.83;104423;276;114071;-55
2023/04/21 12:16:12;;;;;;;;;;;;;;;19.98;24.54;100645.02;104407;276;94580;-56
2023/04/21 12:18:45;;;;;;;;;;;;;;;20.14;24.31;100643.49;104415;276;96657;-56
2023/04/21 12:21:17;;;;;;;;;;;;;;;20.19;24.06;100636.90;104413;276;121057;-55
2023/04/21 12:23:50;;;;;;;;;;;;;;;20.14;24.16;100634.16;104441;276;106088;-55
2023/04/21 12:26:22;;;;;;;;;;;;;;;20.00;24.23;100633.64;104412;276;115096;-57
2023/04/21 12:28:55;;;;;;;;;;;;;;;20.02;24.63;100630.42;104418;276;93433;-57
2023/04/21 12:31:27;;;;;;;;;;;;;;;20.05;24.66;100632.35;104432;276;96629;-58
2023/04/21 12:33:59;;;;;;;;;;;;;;;20.02;24.58;100624.90;104443;276;120299;-58
2023/04/21 12:36:32;;;;;;;;;;;;;;;20.00;23.98;100627.16;104839;276;105945;-58
2023/04/21 12:39:04;;;;;;;;;;;;;;;19.94;24.21;100626.17;104829;276;114272;-58
2023/04/21 12:41:37;;;;;;;;;;;;;;;19.81;24.17;100619.94;104397;276;94808;-55
2023/04/21 12:44:09;;;;;;;;;;;;;;;19.72;24.47;100625.19;104397;276;97471;-55
2023/04/21 12:46:44;;;;;;;;;;;;;;;19.69;24.35;100626.53;104859;276;121936;-58
2023/04/21 12:49:16;;;;;;;;;;;;;;;19.71;24.44;100618.59;104846;279;105961;-56
2023/04/21 12:51:49;;;;;;;;;;;;;;;19.69;24.19;100620.67;104419;276;114151;-57
2023/04/21 12:54:21;;;;;;;;;;;;;;;19.58;24.51;100624.23;104433;276;94474;-56
2023/04/21 12:56:53;;;;;;;;;;;;;;;19.48;24.27;100623.93;104841;276;96189;-56
2023/04/21 12:59:25;;;;;;;;;;;;;;;19.46;24.37;100623.10;104840;276;120253;-56
2023/04/21 13:01:57;;;;;;;;;;;;;;;19.45;24.47;100615.30;104800;276;105958;-56
2023/04/21 13:04:30;;;;;;;;;;;;;;;19.45;24.46;100609.66;104389;276;113740;-59
2023/04/21 13:07:02;;;;;;;;;;;;;;;19.42;24.42;100605.80;104444;276;94685;-59
2023/04/21 13:09:35;;;;;;;;;;;;;;;19.37;24.59;100609.64;104458;276;97576;-59
2023/04/21 13:12:07;;;;;;;;;;;;;;;19.34;24.50;100608.38;104423;276;120217;-59
2023/04/21 13:14:39;;;;;;;;;;;;;;;19.30;24.66;100601.76;104825;276;105261;-59
2023/04/21 13:17:12;;;;;;;;;;;;;;;19.32;24.49;100600.81;104431;276;113100;-59
2023/04/21 13:19:44;;;;;;;;;;;;;;;19.31;24.45;100588.33;104431;276;94320;-57
2023/04/21 13:22:17;;;;;;;;;;;;;;;19.33;24.63;100586.73;104438;276;96116;-57
2023/04/21 13:24:49;;;;;;;;;;;;;;;19.37;24.59;100579.66;104804;276;119638;-56
2023/04/21 13:27:21;;;;;;;;;;;;;;;19.39;24.76;100573.52;104430;264;105710;-56
2023/04/21 13:29:53;;;;;;;;;;;;;;;19.38;24.99;100573.63;104409;276;113763;-57
2023/04/21 13:32:25;;;;;;;;;;;;;;;19.29;24.91;100573.89;104799;276;94010;-57
2023/04/21 13:34:57;;;;;;;;;;;;;;;19.29;25.11;100567.42;104419;276;97338;-56
2023/04/21 13:37:30;;;;;;;;;;;;;;;19.26;25.17;100565.39;104404;276;121387;-56
2023/04/21 13:40:03;;;;;;;;;;;;;;;19.26;25.27;100561.83;104443;276;104165;-56
2023/04/21 13:42:36;;;;;;;;;;;;;;;19.27;25.42;100563.23;104810;276;113831;-56
2023/04/21 13:45:10;;;;;;;;;;;;;;;19.27;25.40;100558.84;104446;276;93495;-58
2023/04/21 13:47:42;;;;;;;;;;;;;;;19.29;25.58;100555.88;104452;276;97532;-58
2023/04/21 13:50:15;;;;;;;;;;;;;;;19.22;25.86;100551.02;104174;278;121261;-58
2023/04/21 13:52:47;;;;;;;;;;;;;;;19.15;25.95;100548.41;104435;276;104146;-56
2023/04/21 13:55:20;;;;;;;;;;;;;;;19.21;26.31;100549.27;104406;276;113100;-55
2023/04/21 13:57:53;;;;;;;;;;;;;;;19.13;26.44;100549.77;104815;276;92119;-55
2023/04/21 14:00:26;;;;;;;;;;;;;;;19.12;26.37;100543.38;104425;276;97056;-54
2023/04/21 14:02:58;;;;;;;;;;;;;;;19.09;26.82;100535.30;104807;276;121210;-55
2023/04/21 14:05:31;;;;;;;;;;;;;;;19.08;27.06;100533.47;104421;276;105880;-55
2023/04/21 14:08:03;;;;;;;;;;;;;;;19.00;27.00;100538.36;104392;276;114113;-55
2023/04/21 14:10:36;;;;;;;;;;;;;;;18.98;26.94;100535.91;104830;276;94745;-58
2023/04/21 14:13:08;;;;;;;;;;;;;;;19.02;26.61;100535.02;104288;277;97959;-58
2023/04/21 14:15:40;;;;;;;;;;;;;;;18.97;26.64;100535.73;104284;277;120377;-57
2023/04/21 14:18:13;;;;;;;;;;;;;;;18.96;26.94;100530.73;104718;277;105410;-57
2023/04/21 14:20:45;;;;;;;;;;;;;;;18.98;27.18;100526.13;104707;277;114048;-58
2023/04/21 14:23:17;;;;;;;;;;;;;;;18.97;27.23;100524.23;104278;277;94239;-58
2023/04/21 14:25:49;;;;;;;;;;;;;;;18.84;27.04;100529.58;104296;277;98277;-55
2023/04/21 14:28:22;;;;;;;;;;;;;;;18.79;27.00;100523.85;104694;277;120933;-55